This is the latest recevied weather packets stored in our database for station/object VE6KEE-13. If no packets are shown the sender has not sent any weather packets the latest 10 day(s).
| Time | Temp. | Humidity | Pressure | Rain* | Wind** | Luminosity | Snow |
|---|---|---|---|---|---|---|---|
| 1777922382 | 17.78° C | 20% | 1017.5 hPa | 0 mm | - | - | - |
| 1777921487 | 16.67° C | 21% | 1017.5 hPa | 0 mm | - | - | - |
| 1777920579 | 16.67° C | 21% | 1017.6 hPa | 0 mm | - | - | - |
| 1777919678 | 16.67° C | 21% | 1017.8 hPa | 0 mm | - | - | - |
| 1777918777 | 17.78° C | 19% | 1017.8 hPa | 0 mm | - | - | - |
| 1777917876 | 18.33° C | 19% | 1017.9 hPa | 0 mm | - | - | - |
| 1777916976 | 18.89° C | 19% | 1018 hPa | 0 mm | - | - | - |
| 1777916081 | 20° C | 18% | 1017.9 hPa | 0 mm | - | - | - |
| 1777915174 | 20.56° C | 18% | 1017.9 hPa | 0 mm | - | - | - |
| 1777914273 | 21.11° C | 19% | 1017.9 hPa | 0 mm | - | - | - |
| 1777913376 | 21.11° C | 19% | 1017.9 hPa | 0 mm | - | - | - |
| 1777912476 | 20.56° C | 20% | 1017.9 hPa | 0 mm | - | - | - |
| 1777911571 | 20° C | 21% | 1018 hPa | 0 mm | - | - | - |
| 1777910676 | 19.44° C | 22% | 1017.9 hPa | 0 mm | - | - | - |
| 1777909771 | 18.89° C | 23% | 1018 hPa | 0 mm | - | - | - |
| 1777908869 | 17.78° C | 25% | 1018.1 hPa | 0 mm | - | - | - |
| 1777907970 | 16.11° C | 27% | 1018.2 hPa | 0 mm | - | - | - |
| 1777907070 | 14.44° C | 31% | 1018.3 hPa | 0 mm | - | - | - |
| 1777906167 | 12.78° C | 34% | 1018.4 hPa | 0 mm | - | - | - |
| 1777905270 | 10.56° C | 38% | 1018.6 hPa | 0 mm | - | - | - |
| 1777904365 | 8.89° C | 41% | 1018.6 hPa | 0 mm | - | - | - |
| 1777903464 | 7.78° C | 42% | 1018.4 hPa | 0 mm | - | - | - |
| 1777902564 | 7.78° C | 43% | 1018.6 hPa | 0 mm | - | - | - |
| 1777901663 | 7.22° C | 44% | 1018.5 hPa | 0 mm | - | - | - |
| 1777900762 | 7.22° C | 44% | 1018.3 hPa | 0 mm | - | - | - |
* Rain since midnight (hover to see other rain measurements)
** Current wind speed in m/s (hover to see current wind gust speed)